Du har inga inställningar för hoppväder.nu

Hoppväder.nu

Senast uppdaterat 10:44

UTC-tid

2019-04-23 kl. 08:44


Sol och måne

Solen går upp 5:23 och går ner 21:20 (beräknade cirkatider)
Nästa fullmåne blir om 25 dagar (2019-05-18)

METAR

ESMQ (Kalmar)
(24 minuter sedan)
ESMQ 230820Z 11009KT CAVOK 15/04 Q1026=



ESMX (Växjö)
(24 minuter sedan)
ESMX 230820Z 13010KT 060V170 CAVOK 16/M02 Q1024=



ESMK (Ronneby)
(24 minuter sedan)
ESMK 230820Z 11016KT CAVOK 14/02 Q1022=



ESSV (Visby)
(24 minuter sedan)
ESSV 230820Z 13008KT CAVOK 16/03 Q1028=






TAF

ESMQ (Kalmar)
(14 minuter sedan)
ESMQ 230830Z 2309/2318 12012G22KT CAVOK=



ESMX (Växjö)
(14 minuter sedan)
ESMX 230830Z 2309/2318 14014G25KT CAVOK=



ESMK (Ronneby)
(43 minuter sedan)
ESMK 230801Z 2309/2318 11015KT CAVOK TEMPO 2309/2318 10020G35KT=



ESSV (Visby)
(194 minuter sedan)
ESSV 230530Z 2306/2315 15008KT CAVOK=





Kodnycklar till TAF och METAR






LHP

(Borglanda är område K1a i Sydöstra delen)

ÖVERSIKT FÖR OMRÅDE A UTFÄRDAD 230715
GÄLLANDE DEN 23 APRIL 2019 MELLAN 08 OCH 16 UTC


Väderöversikt

Ett högtryck täcker Sverige

Sikt under 5 kilometer eller molnbas under 1000 fot
Väntas inte förekomma under perioden.

Måttlig eller svår isbildning
Väntas inte förekomma under perioden

Måttlig eller svår turbulens
08-16UTC: I hela området



PROGNOS FÖR OMRÅDE A DEN SYDÖSTRA DELEN UTFÄRDAD 230715
GÄLLANDE DEN 23 APRIL 2019 MELLAN 08 OCH 16 UTC

Måttlig eller svår turbulens
08-16UTC: Område K3a,K3c,K3b,K1a,K1c,K1b,K2b,K2a,K2d,K2c: måttlig turbulens SFC - 3000ft.
Område K3d,K1d: Väntas inte förekomma under perioden


Måttlig eller svår isbildning
08-16UTC: I hela området: Väntas inte förekomma under perioden

Sikt/Väder/Moln
08-16UTC: I hela området: Sikt >8km. Molnbas >2000ft.

Molnöversida
08-16UTC: I hela området: Ingen prognos

CB/TCU Moln
08-16UTC: I hela området: Väntas inte förekomma under perioden

Nollgradersisoterm
08-16UTC: Noll grader FL050 - FL090.

Vind vid marken
08-10UTC: Område K3d: O/19-20 knop.
Område K3b: O-SO/9-12 knop, byar upp till 31 knop.
Område K2d: SO/9-21 knop, byar upp till 33 knop.
Område K1d: O-SO/14-20 knop.
Område K2a: SO/6-16 knop, byar upp till 29 knop.
Område K1c: O-SO/6-18 knop, byar upp till 24 knop.
Område K1b: SO/9-17 knop, byar upp till 28 knop.
Område K3c: O-SO/9-20 knop, byar upp till 31 knop.
Område K2b: SO/6-11 knop, byar upp till 29 knop.
Område K1a: SO/4-13 knop, byar upp till 28 knop.
Område K2c: SO/10-20 knop, byar upp till 34 knop.
Område K3a: SO/11-18 knop, byar upp till 34 knop.

10-12UTC: Område K2a: SO/9-16 knop, byar upp till 30 knop.
Område K3a: O-SO/11-18 knop, byar upp till 35 knop.
Område K1c: O-SO/7-19 knop, byar upp till 24 knop.
Område K3d: O/19-24 knop.
Område K2b: SO/10-14 knop, byar upp till 32 knop.
Område K2d: SO/10-21 knop, byar upp till 33 knop.
Område K2c: SO/10-20 knop, byar upp till 37 knop.
Område K3b: O-SO/9-13 knop, byar upp till 33 knop.
Område K1d: O-SO/14-21 knop, byar upp till 25 knop.
Område K3c: O/9-22 knop, byar upp till 31 knop.
Område K1a: SO/7-15 knop, byar upp till 31 knop.
Område K1b: O-SO/9-17 knop, byar upp till 30 knop.

12-14UTC: Område K3a: O-SO/12-18 knop, byar upp till 37 knop.
Område K1a: SO/6-14 knop, byar upp till 30 knop.
Område K2c: SO/10-21 knop, byar upp till 35 knop.
Område K1b: O-SO/9-19 knop, byar upp till 31 knop.
Område K3c: O/11-24 knop, byar upp till 36 knop.
Område K1d: O/14-22 knop, byar upp till 27 knop.
Område K3b: O-SO/11-15 knop, byar upp till 33 knop.
Område K2d: SO/10-20 knop, byar upp till 33 knop.
Område K1c: O-SO/7-21 knop, byar upp till 26 knop.
Område K2b: SO/10-14 knop, byar upp till 31 knop.

12-16UTC: Område K2a: SO/9-16 knop, byar upp till 29 knop.
Område K3d: O/20-24 knop.

14-16UTC: Område K1a: O-SO/6-14 knop, byar upp till 29 knop.
Område K3b: O-SO/11-15 knop, byar upp till 35 knop.
Område K1b: O-SO/9-20 knop, byar upp till 30 knop.
Område K3a: O-SO/13-18 knop, byar upp till 39 knop.
Område K3c: O/11-24 knop, byar upp till 38 knop.
Område K2d: O-SO/10-22 knop, byar upp till 34 knop.
Område K1c: O/6-21 knop, byar upp till 26 knop.
Område K2b: SO/9-13 knop, byar upp till 30 knop.
Område K1d: O/16-22 knop.
Område K2c: O-SO/10-21 knop, byar upp till 36 knop.


Genomsnittlig vind och temperatur för området
2000ft:
08-10UTC: 140/29kt +9.
10-12UTC: 130/29kt +9.
12-14UTC: 130/30kt +10.
14-16UTC: 120/32kt +10.

FL50:
08-12UTC: 140/30kt +1.
12-14UTC: 130/29kt +2.
14-16UTC: 130/32kt +2.

FL100:
08-10UTC: 130/27kt -4.
10-12UTC: 130/30kt -4.
12-14UTC: 130/32kt -5.
14-16UTC: 130/33kt -6.

Lägsta QNH
1015 hPa.

OBS! endast utbredd måttlig eller svår isbildning och turbulens prognostiseras i LLF.
Avsaknad av isbildning och turbulens i prognosen utesluter inte förekomst av lätt isbildning och turbulens.
För indikation på lätt isbildning, var vänlig kontrollera om prognosen för molntopp ligger högre än nollgradersisotermen.
Förekomst av TCU eller CB medför alltid en risk för måttlig eller svår isbildning och turbulens även om det inte framgår explicit av prognosen.





Spotting

Hur fungerar spotthjälpen och Vindkartan?

Markvind är ca 2-7 m/s med byar på 14 m/s.
Vind på 600 m ca 15 m/s.
Vind på 1500 m ca 15 m/s.
Vind på 3000 m ca 14 m/s.
Filip Helge flyger ca 27 m/s över marken på finalen.
Du driver ca 625 m bakåt i frifall. (833 m)
Lämplig spot är 12 sekunder eller 327 m efter gropen.
(20 s eller 545 m)
För små grupper eller ensamhoppare bör man vänta 6-8 sekunder mellan grupperna.
För större grupper bör man vänta 11-13 sekunder mellan grupperna.


Vindkartan

Senast uppdaterad 10:44




All data kommer från LFV.se